createdAt,value
2018-05-04T00:00:18.328Z,101146.27
2018-05-04T00:01:20.813Z,101150.80
2018-05-04T00:02:23.321Z,101148.61
2018-05-04T00:03:25.871Z,101140.36
2018-05-04T00:04:28.342Z,101140.36
2018-05-04T00:05:30.887Z,101145.39
2018-05-04T00:06:33.448Z,101143.61
2018-05-04T00:07:36.011Z,101146.77
2018-05-04T00:08:38.566Z,101142.23
2018-05-04T00:09:41.049Z,101141.27
2018-05-04T00:10:43.518Z,101143.05
2018-05-04T00:11:46.021Z,101138.11
2018-05-04T00:12:48.577Z,101140.86
2018-05-04T00:13:51.066Z,101138.52
2018-05-04T00:14:53.553Z,101136.73
2018-05-04T00:15:56.033Z,101139.48
2018-05-04T00:16:58.533Z,101138.67
2018-05-04T00:18:01.035Z,101141.58
2018-05-04T00:19:03.571Z,101136.89
2018-05-04T00:20:06.047Z,101143.77
2018-05-04T00:21:08.551Z,101140.45
2018-05-04T00:22:11.027Z,101145.80
2018-05-04T00:23:13.547Z,101146.77
2018-05-04T00:24:16.052Z,101147.98
2018-05-04T00:25:18.536Z,101147.83
2018-05-04T00:26:21.029Z,101146.87
2018-05-04T00:27:23.518Z,101151.14
2018-05-04T00:28:26.023Z,101154.70
2018-05-04T00:29:28.529Z,101146.87
2018-05-04T00:30:31.096Z,101152.20
2018-05-04T00:31:33.589Z,101153.73
2018-05-04T00:32:36.072Z,101156.08
2018-05-04T00:33:38.566Z,101158.27
2018-05-04T00:34:41.078Z,101162.95
2018-05-04T00:35:43.561Z,101156.48
2018-05-04T00:36:46.135Z,101165.14
2018-05-04T00:37:48.639Z,101157.86
2018-05-04T00:38:51.114Z,101159.23
2018-05-04T00:39:53.626Z,101156.08
2018-05-04T00:40:56.113Z,101158.83
2018-05-04T00:41:58.594Z,101159.39
2018-05-04T00:43:01.105Z,101157.61
2018-05-04T00:44:03.669Z,101160.36
2018-05-04T00:45:06.223Z,101164.08
2018-05-04T00:46:08.781Z,101156.39
2018-05-04T00:47:11.269Z,101154.05
2018-05-04T00:48:13.757Z,101151.70
2018-05-04T00:49:16.248Z,101156.23
2018-05-04T00:50:18.757Z,101149.36
2018-05-04T00:51:21.259Z,101153.23
2018-05-04T00:52:23.745Z,101152.52
2018-05-04T00:53:26.255Z,101157.20
2018-05-04T00:54:28.726Z,101157.77
2018-05-04T00:55:31.240Z,101161.33
2018-05-04T00:56:33.743Z,101164.23
2018-05-04T00:57:36.248Z,101166.58
2018-05-04T00:58:38.737Z,101167.80
2018-05-04T00:59:41.244Z,101166.17
2018-05-04T01:00:43.753Z,101162.61
2018-05-04T01:01:46.240Z,101171.11
2018-05-04T01:02:48.739Z,101166.98
2018-05-04T01:03:51.215Z,101165.77
2018-05-04T01:04:53.705Z,101163.02
2018-05-04T01:05:56.234Z,101158.73
2018-05-04T01:06:58.735Z,101158.08
2018-05-04T01:08:01.223Z,101162.05
2018-05-04T01:09:06.364Z,101170.70
2018-05-04T01:10:08.856Z,101168.52
2018-05-04T01:11:11.354Z,101175.14
2018-05-04T01:12:13.826Z,101181.86
2018-05-04T01:13:16.302Z,101183.79
2018-05-04T01:14:18.829Z,101179.92
2018-05-04T01:15:21.386Z,101185.16
2018-05-04T01:16:23.949Z,101191.89
2018-05-04T01:17:26.438Z,101190.81
2018-05-04T01:18:28.967Z,101194.38
2018-05-04T01:19:31.457Z,101188.88
2018-05-04T01:20:33.945Z,101191.07
2018-05-04T01:21:36.496Z,101193.01
2018-05-04T01:22:38.999Z,101204.41
2018-05-04T01:23:41.474Z,101196.31
2018-05-04T01:24:43.960Z,101197.44
2018-05-04T01:25:46.465Z,101205.69
2018-05-04T01:26:48.995Z,101202.69
2018-05-04T01:27:51.485Z,101204.22
2018-05-04T01:28:53.976Z,101209.30
2018-05-04T01:29:56.483Z,101212.20
2018-05-04T01:30:58.972Z,101213.18
2018-05-04T01:32:01.477Z,101214.55
2018-05-04T01:33:03.942Z,101216.89
2018-05-04T01:34:06.503Z,101220.77
2018-05-04T01:35:09.011Z,101221.05
2018-05-04T01:36:11.497Z,101217.89
2018-05-04T01:37:14.028Z,101220.23
2018-05-04T01:38:16.531Z,101220.23
2018-05-04T01:39:19.029Z,101218.45
2018-05-04T01:40:21.517Z,101209.80
2018-05-04T01:41:24.063Z,101213.77
2018-05-04T01:42:26.551Z,101209.77
2018-05-04T01:43:29.079Z,101204.94
2018-05-04T01:44:31.583Z,101207.52
2018-05-04T01:45:34.094Z,101201.06
2018-05-04T01:46:36.585Z,101203.25
2018-05-04T01:47:39.090Z,101204.22
2018-05-04T01:48:41.595Z,101195.81
2018-05-04T01:49:44.071Z,101200.50
2018-05-04T01:50:46.553Z,101200.19
2018-05-04T01:51:49.034Z,101203.09
2018-05-04T01:52:51.601Z,101204.47
2018-05-04T01:53:54.112Z,101201.31
2018-05-04T01:54:56.600Z,101201.31
2018-05-04T01:55:59.100Z,101198.56
2018-05-04T01:57:01.585Z,101203.40
2018-05-04T01:58:04.089Z,101207.68
2018-05-04T01:59:06.578Z,101207.42
2018-05-04T02:00:09.050Z,101205.36
2018-05-04T02:01:11.521Z,101209.64
2018-05-04T02:02:13.992Z,101208.42
2018-05-04T02:03:16.478Z,101213.92
2018-05-04T02:04:18.965Z,101213.92
2018-05-04T02:05:21.459Z,101216.01
2018-05-04T02:06:23.930Z,101214.48
2018-05-04T02:07:26.417Z,101213.52
2018-05-04T02:08:28.925Z,101214.07
2018-05-04T02:09:31.397Z,101212.29
2018-05-04T02:10:33.902Z,101215.04
2018-05-04T02:11:36.389Z,101216.97
2018-05-04T02:12:38.916Z,101213.66
2018-05-04T02:13:41.476Z,101216.97
2018-05-04T02:14:44.038Z,101216.16
2018-05-04T02:15:46.523Z,101219.31
2018-05-04T02:16:49.053Z,101213.56
2018-05-04T02:17:51.548Z,101213.97
2018-05-04T02:18:54.048Z,101216.31
2018-05-04T02:19:56.536Z,101216.87
2018-05-04T02:20:59.032Z,101221.41
2018-05-04T02:22:01.503Z,101210.16
2018-05-04T02:23:03.989Z,101209.34
2018-05-04T02:24:06.492Z,101216.77
2018-05-04T02:25:08.995Z,101215.81
2018-05-04T02:26:11.500Z,101212.66
2018-05-04T02:27:14.008Z,101219.27
2018-05-04T02:28:16.495Z,101218.71
2018-05-04T02:29:19.006Z,101221.05
2018-05-04T02:30:21.524Z,101214.59
2018-05-04T02:31:24.028Z,101218.15
2018-05-04T02:32:26.526Z,101221.71
2018-05-04T02:33:29.013Z,101215.09
2018-05-04T02:34:31.552Z,101208.31
2018-05-04T02:35:34.045Z,101214.63
2018-05-04T02:36:36.563Z,101213.52
2018-05-04T02:37:39.034Z,101215.70
2018-05-04T02:38:41.559Z,101211.17
2018-05-04T02:39:44.145Z,101214.89
2018-05-04T02:40:46.709Z,101207.61
2018-05-04T02:41:49.269Z,101214.89
2018-05-04T02:42:51.757Z,101219.16
2018-05-04T02:43:54.252Z,101217.38
2018-05-04T02:44:56.742Z,101220.28
2018-05-04T02:45:59.237Z,101216.31
2018-05-04T02:47:01.726Z,101221.81
2018-05-04T02:48:04.216Z,101218.25
2018-05-04T02:49:06.704Z,101220.19
2018-05-04T02:50:09.219Z,101218.81
2018-05-04T02:51:12.653Z,101221.71
2018-05-04T02:52:15.177Z,101222.68
2018-05-04T02:53:17.660Z,101221.45
2018-05-04T02:54:20.194Z,101221.05
2018-05-04T02:55:22.732Z,101218.30
2018-05-04T02:56:25.226Z,101219.83
2018-05-04T02:57:27.732Z,101220.80
2018-05-04T02:58:30.220Z,101216.27
2018-05-04T02:59:32.747Z,101217.23
2018-05-04T03:00:35.252Z,101215.86
2018-05-04T03:01:37.759Z,101206.80
2018-05-04T03:02:40.267Z,101212.86
2018-05-04T03:03:42.757Z,101210.11
2018-05-04T03:04:45.228Z,101206.39
2018-05-04T03:05:47.740Z,101208.33
2018-05-04T03:06:50.224Z,101203.80
2018-05-04T03:07:52.709Z,101205.17
2018-05-04T03:08:55.197Z,101205.33
2018-05-04T03:09:57.703Z,101203.95
2018-05-04T03:11:00.217Z,101206.14
2018-05-04T03:12:02.687Z,101202.58
2018-05-04T03:13:05.160Z,101200.39
2018-05-04T03:14:07.630Z,101201.61
2018-05-04T03:15:10.146Z,101195.30
2018-05-04T03:16:12.639Z,101193.92
2018-05-04T03:17:15.121Z,101201.20
2018-05-04T03:18:17.587Z,101191.84
2018-05-04T03:19:20.073Z,101197.18
2018-05-04T03:20:22.557Z,101197.03
2018-05-04T03:21:25.050Z,101194.13
2018-05-04T03:22:27.555Z,101194.22
2018-05-04T03:23:30.060Z,101191.16
2018-05-04T03:24:32.549Z,101192.80
2018-05-04T03:25:35.054Z,101194.67
2018-05-04T03:26:37.573Z,101194.83
2018-05-04T03:27:40.069Z,101194.42
2018-05-04T03:28:42.630Z,101190.86
2018-05-04T03:29:45.102Z,101187.70
2018-05-04T03:30:47.649Z,101191.57
2018-05-04T03:31:50.143Z,101188.57
2018-05-04T03:32:52.619Z,101195.44
2018-05-04T03:33:55.123Z,101193.25
2018-05-04T03:34:57.613Z,101193.25
2018-05-04T03:36:00.092Z,101191.88
2018-05-04T03:37:02.593Z,101193.41
2018-05-04T03:38:05.081Z,101187.76
2018-05-04T03:39:07.589Z,101183.78
2018-05-04T03:40:10.085Z,101187.91
2018-05-04T03:41:12.591Z,101186.38
2018-05-04T03:42:15.089Z,101187.91
2018-05-04T03:43:17.628Z,101181.45
2018-05-04T03:44:20.121Z,101191.88
2018-05-04T03:45:22.617Z,101186.64
2018-05-04T03:46:25.088Z,101190.86
2018-05-04T03:47:27.588Z,101193.05
2018-05-04T03:48:30.095Z,101200.73
2018-05-04T03:49:32.574Z,101197.42
2018-05-04T03:50:35.062Z,101196.05
2018-05-04T03:51:37.567Z,101195.80
2018-05-04T03:52:40.099Z,101192.08
2018-05-04T03:53:42.606Z,101189.48
2018-05-04T03:54:45.093Z,101198.14
2018-05-04T03:55:47.658Z,101196.92
2018-05-04T03:56:50.218Z,101193.77
2018-05-04T03:58:04.656Z,101198.45
2018-05-04T03:59:18.982Z,101196.26
2018-05-04T04:00:33.426Z,101197.78
2018-05-04T04:01:47.778Z,101196.56
2018-05-04T04:03:02.202Z,101197.13
2018-05-04T04:04:13.184Z,101195.50
2018-05-04T04:05:15.673Z,101192.91
2018-05-04T04:06:18.159Z,101195.40
2018-05-04T04:07:20.645Z,101193.05
2018-05-04T04:08:23.179Z,101196.92
2018-05-04T04:09:25.658Z,101187.87
2018-05-04T04:10:28.141Z,101195.95
2018-05-04T04:11:30.613Z,101191.17
2018-05-04T04:12:33.092Z,101189.39
2018-05-04T04:13:35.623Z,101192.55
2018-05-04T04:14:38.127Z,101195.30
2018-05-04T04:15:40.621Z,101195.20
2018-05-04T04:16:43.095Z,101203.85
2018-05-04T04:17:45.567Z,101199.33
2018-05-04T04:18:48.076Z,101195.77
2018-05-04T04:19:50.557Z,101205.78
2018-05-04T04:20:53.049Z,101203.59
2018-05-04T04:21:55.559Z,101195.88
2018-05-04T04:22:58.049Z,101197.26
2018-05-04T04:24:00.633Z,101195.48
2018-05-04T04:25:03.873Z,101203.72
2018-05-04T04:26:06.360Z,101205.25
2018-05-04T04:27:08.869Z,101199.91
2018-05-04T04:28:11.416Z,101204.03
2018-05-04T04:29:13.870Z,101203.63
2018-05-04T04:30:16.371Z,101208.30
2018-05-04T04:31:18.842Z,101205.97
2018-05-04T04:32:21.324Z,101201.99
2018-05-04T04:33:23.806Z,101204.74
2018-05-04T04:34:26.338Z,101208.46
2018-05-04T04:35:28.852Z,101208.05
2018-05-04T04:36:31.348Z,101211.77
2018-05-04T04:37:33.818Z,101209.98
2018-05-04T04:38:36.298Z,101220.42
2018-05-04T04:39:38.802Z,101214.27
2018-05-04T04:40:41.299Z,101218.80
2018-05-04T04:41:43.883Z,101220.17
2018-05-04T04:42:46.355Z,101217.98
2018-05-04T04:43:48.848Z,101223.06
2018-05-04T04:44:51.358Z,101215.08
2018-05-04T04:45:53.853Z,101219.61
2018-05-04T04:46:56.327Z,101216.14
2018-05-04T04:47:58.813Z,101218.59
2018-05-04T04:49:01.301Z,101219.25
2018-05-04T04:50:03.857Z,101220.75
2018-05-04T04:51:06.417Z,101221.00
2018-05-04T04:52:08.896Z,101222.38
2018-05-04T04:53:11.393Z,101224.01
2018-05-04T04:54:13.885Z,101234.03
2018-05-04T04:55:16.382Z,101229.20
2018-05-04T04:56:18.865Z,101236.63
2018-05-04T04:57:21.449Z,101231.69
2018-05-04T04:58:23.932Z,101233.63
2018-05-04T04:59:26.436Z,101234.59
2018-05-04T05:00:28.944Z,101236.13
2018-05-04T05:01:31.431Z,101237.09
2018-05-04T05:02:33.960Z,101240.41
2018-05-04T05:03:36.449Z,101237.40
2018-05-04T05:04:38.953Z,101238.36
2018-05-04T05:05:41.464Z,101242.20
2018-05-04T05:06:43.953Z,101244.55
2018-05-04T05:07:46.452Z,101240.02
2018-05-04T05:08:48.942Z,101240.73
2018-05-04T05:09:51.437Z,101241.70
2018-05-04T05:10:53.946Z,101244.03
2018-05-04T05:11:56.440Z,101245.56
2018-05-04T05:12:58.936Z,101251.06
2018-05-04T05:14:01.421Z,101251.47
2018-05-04T05:15:03.923Z,101255.19
2018-05-04T05:16:06.555Z,101256.15
2018-05-04T05:17:09.059Z,101254.92
2018-05-04T05:18:11.535Z,101260.27
2018-05-04T05:19:14.016Z,101255.74
2018-05-04T05:20:16.509Z,101261.65
2018-05-04T05:21:19.018Z,101258.08
2018-05-04T05:22:21.514Z,101258.49
2018-05-04T05:23:23.990Z,101260.83
2018-05-04T05:24:26.476Z,101263.58
2018-05-04T05:25:28.948Z,101260.42
2018-05-04T05:26:31.511Z,101265.92
2018-05-04T05:27:34.015Z,101260.42
2018-05-04T05:28:36.538Z,101261.65
2018-05-04T05:29:39.060Z,101267.55
2018-05-04T05:30:41.566Z,101262.46
2018-05-04T05:31:44.073Z,101262.56
2018-05-04T05:32:46.547Z,101264.34
2018-05-04T05:33:49.040Z,101268.88
2018-05-04T05:34:51.582Z,101268.31
2018-05-04T05:35:54.142Z,101267.91
2018-05-04T05:36:56.728Z,101266.84
2018-05-04T05:37:59.237Z,101267.80
2018-05-04T05:39:01.725Z,101267.95
2018-05-04T05:40:04.284Z,101275.95
2018-05-04T05:41:06.844Z,101277.06
2018-05-04T05:42:09.352Z,101273.81
2018-05-04T05:43:11.855Z,101276.16
2018-05-04T05:44:14.349Z,101270.55
2018-05-04T05:45:16.865Z,101274.31
2018-05-04T05:46:19.341Z,101278.85
2018-05-04T05:47:21.879Z,101271.58
2018-05-04T05:48:24.359Z,101277.63
2018-05-04T05:49:26.856Z,101282.27
2018-05-04T05:50:29.372Z,101281.30
2018-05-04T05:51:31.929Z,101285.88
2018-05-04T05:52:34.447Z,101287.81
2018-05-04T05:53:36.964Z,101289.89
2018-05-04T05:54:39.482Z,101288.57
2018-05-04T05:55:41.955Z,101292.03
2018-05-04T05:56:44.445Z,101290.14
2018-05-04T05:57:46.968Z,101293.45
2018-05-04T05:58:49.447Z,101294.13
2018-05-04T05:59:51.946Z,101291.95
2018-05-04T06:00:54.451Z,101295.41
2018-05-04T06:01:56.948Z,101300.34
2018-05-04T06:02:59.457Z,101300.75
2018-05-04T06:04:02.074Z,101298.15
2018-05-04T06:05:04.597Z,101302.83
2018-05-04T06:06:07.102Z,101298.70
2018-05-04T06:07:09.714Z,101298.30
2018-05-04T06:08:12.278Z,101296.52
2018-05-04T06:09:14.850Z,101302.83
2018-05-04T06:10:17.397Z,101295.00
2018-05-04T06:11:19.961Z,101293.36
2018-05-04T06:12:22.503Z,101295.55
2018-05-04T06:13:25.073Z,101296.37
2018-05-04T06:14:27.544Z,101291.84
2018-05-04T06:15:30.040Z,101294.18
2018-05-04T06:16:32.532Z,101292.95
2018-05-04T06:17:35.040Z,101293.36
2018-05-04T06:18:37.530Z,101298.86
2018-05-04T06:19:40.038Z,101298.86
2018-05-04T06:20:42.645Z,101298.45
2018-05-04T06:21:45.148Z,101298.05
2018-05-04T06:22:47.640Z,101299.98
2018-05-04T06:23:50.148Z,101299.98
2018-05-04T06:24:52.728Z,101297.23
2018-05-04T06:25:55.221Z,101301.35
2018-05-04T06:26:57.725Z,101301.35
2018-05-04T06:28:00.212Z,101299.16
2018-05-04T06:29:02.722Z,101302.73
2018-05-04T06:30:05.227Z,101302.47
2018-05-04T06:31:07.733Z,101302.73
2018-05-04T06:32:10.240Z,101297.38
2018-05-04T06:33:12.720Z,101300.69
2018-05-04T06:34:15.526Z,101298.35
2018-05-04T06:35:18.009Z,101301.50
2018-05-04T06:36:20.505Z,101293.27
2018-05-04T06:37:23.010Z,101300.28
2018-05-04T06:38:25.487Z,101302.47
2018-05-04T06:39:27.970Z,101302.06
2018-05-04T06:40:30.517Z,101304.41
2018-05-04T06:41:33.079Z,101314.02
2018-05-04T06:42:35.638Z,101305.22
2018-05-04T06:43:38.259Z,101309.90
2018-05-04T06:44:40.847Z,101309.34
2018-05-04T06:45:43.353Z,101310.72
2018-05-04T06:46:45.812Z,101311.27
2018-05-04T06:47:48.312Z,101314.43
2018-05-04T06:48:50.782Z,101311.68
2018-05-04T06:49:53.309Z,101314.98
2018-05-04T06:50:55.819Z,101312.23
2018-05-04T06:51:58.323Z,101311.68
2018-05-04T06:53:00.813Z,101318.14
2018-05-04T06:54:03.305Z,101311.27
2018-05-04T06:55:05.809Z,101316.36
2018-05-04T06:56:08.316Z,101314.43
2018-05-04T06:57:10.794Z,101312.64
2018-05-04T06:58:13.317Z,101313.61
2018-05-04T06:59:15.901Z,101317.33
2018-05-04T07:00:18.366Z,101315.95
2018-05-04T07:01:20.853Z,101316.77
2018-05-04T07:02:23.336Z,101314.58
2018-05-04T07:03:25.810Z,101313.61
2018-05-04T07:04:28.324Z,101314.58
2018-05-04T07:05:30.839Z,101309.49
2018-05-04T07:06:33.351Z,101308.67
2018-05-04T07:07:35.822Z,101305.93
2018-05-04T07:08:38.715Z,101307.30
2018-05-04T07:09:41.229Z,101305.78
2018-05-04T07:10:43.718Z,101312.80
2018-05-04T07:11:46.238Z,101310.86
2018-05-04T07:12:48.750Z,101312.23
2018-05-04T07:13:51.293Z,101310.05
2018-05-04T07:14:53.811Z,101309.09
2018-05-04T07:15:56.306Z,101308.53
2018-05-04T07:16:58.806Z,101305.37
2018-05-04T07:18:01.303Z,101308.94
2018-05-04T07:19:03.842Z,101314.02
2018-05-04T07:20:06.371Z,101308.12
2018-05-04T07:21:08.921Z,101309.90
2018-05-04T07:22:11.462Z,101309.90
2018-05-04T07:23:14.036Z,101312.64
2018-05-04T07:24:16.581Z,101317.99
2018-05-04T07:25:19.157Z,101312.50
2018-05-04T07:26:21.676Z,101309.90
2018-05-04T07:27:24.181Z,101307.16
2018-05-04T07:28:26.654Z,101302.47
2018-05-04T07:29:29.127Z,101301.50
2018-05-04T07:30:31.661Z,101302.88
2018-05-04T07:31:34.162Z,101298.76
2018-05-04T07:32:36.662Z,101300.13
2018-05-04T07:33:39.235Z,101301.77
2018-05-04T07:34:41.795Z,101303.28
2018-05-04T07:35:44.297Z,101304.09
2018-05-04T07:36:46.836Z,101301.35
2018-05-04T07:37:49.371Z,101299.02
2018-05-04T07:38:51.816Z,101301.77
2018-05-04T07:39:54.331Z,101299.98
2018-05-04T07:40:56.811Z,101298.61
2018-05-04T07:41:59.325Z,101297.64
2018-05-04T07:43:01.798Z,101303.95
2018-05-04T07:44:04.289Z,101298.05
2018-05-04T07:45:06.853Z,101301.77
2018-05-04T07:46:09.326Z,101298.45
2018-05-04T07:47:11.836Z,101301.61
2018-05-04T07:48:14.340Z,101299.83
2018-05-04T07:49:16.856Z,101310.41
2018-05-04T07:50:19.365Z,101301.20
2018-05-04T07:51:21.841Z,101298.86
2018-05-04T07:52:24.322Z,101300.64
2018-05-04T07:53:26.814Z,101293.22
2018-05-04T07:54:29.335Z,101291.58
2018-05-04T07:55:31.839Z,101292.40
2018-05-04T07:56:37.049Z,101293.22
2018-05-04T07:57:39.553Z,101298.70
2018-05-04T07:58:42.055Z,101302.83
2018-05-04T07:59:44.569Z,101295.41
2018-05-04T08:00:47.081Z,101296.77
2018-05-04T08:01:49.565Z,101296.77
2018-05-04T08:02:52.124Z,101292.25
2018-05-04T08:03:54.647Z,101299.52
2018-05-04T08:04:57.197Z,101298.96
2018-05-04T08:05:59.686Z,101300.75
2018-05-04T08:07:02.172Z,101299.78
2018-05-04T08:08:04.690Z,101298.81
2018-05-04T08:09:07.195Z,101300.19
2018-05-04T08:10:09.700Z,101303.75
2018-05-04T08:11:12.211Z,101305.53
2018-05-04T08:12:14.697Z,101302.25
2018-05-04T08:13:17.236Z,101305.53
2018-05-04T08:14:19.796Z,101297.73
2018-05-04T08:15:22.355Z,101304.59
2018-05-04T08:16:24.826Z,101303.22
2018-05-04T08:17:27.330Z,101304.30
2018-05-04T08:18:29.823Z,101297.98
2018-05-04T08:19:32.302Z,101301.14
2018-05-04T08:20:34.810Z,101306.62
2018-05-04T08:21:37.301Z,101302.36
2018-05-04T08:22:39.784Z,101302.52
2018-05-04T08:23:42.299Z,101299.61
2018-05-04T08:24:44.986Z,101301.95
2018-05-04T08:25:47.641Z,101300.42
2018-05-04T08:26:50.208Z,101295.48
2018-05-04T08:27:52.694Z,101299.45
2018-05-04T08:28:55.202Z,101295.74
2018-05-04T08:29:57.688Z,101303.43
2018-05-04T08:31:00.180Z,101309.59
2018-05-04T08:32:02.669Z,101306.28
2018-05-04T08:33:05.159Z,101309.59
2018-05-04T08:34:07.689Z,101310.55
2018-05-04T08:35:10.222Z,101303.28
2018-05-04T08:36:12.739Z,101304.09
2018-05-04T08:37:15.301Z,101310.81
2018-05-04T08:38:17.859Z,101309.28
2018-05-04T08:39:20.421Z,101300.63
2018-05-04T08:40:22.978Z,101299.81
2018-05-04T08:41:25.469Z,101302.82
2018-05-04T08:42:27.996Z,101305.72
2018-05-04T08:43:30.558Z,101300.07
2018-05-04T08:44:33.064Z,101297.32
2018-05-04T08:45:35.574Z,101298.70
2018-05-04T08:46:38.097Z,101295.80
2018-05-04T08:47:40.591Z,101292.64
2018-05-04T08:48:43.061Z,101290.30
2018-05-04T08:49:45.569Z,101297.98
2018-05-04T08:50:48.098Z,101289.73
2018-05-04T08:51:50.588Z,101291.52
2018-05-04T08:52:53.073Z,101287.41
2018-05-04T08:53:55.564Z,101291.52
2018-05-04T08:54:58.098Z,101285.88
2018-05-04T08:56:00.592Z,101288.06
2018-05-04T08:57:03.176Z,101293.00
2018-05-04T08:58:05.609Z,101282.01
2018-05-04T08:59:08.099Z,101278.44
2018-05-04T09:00:10.620Z,101285.98
2018-05-04T09:01:13.133Z,101284.60
2018-05-04T09:02:15.626Z,101287.20
2018-05-04T09:03:18.179Z,101281.85
2018-05-04T09:04:20.669Z,101284.45
2018-05-04T09:05:23.239Z,101283.64
2018-05-04T09:06:25.716Z,101283.48
2018-05-04T09:07:28.243Z,101278.39
2018-05-04T09:08:30.728Z,101279.20
2018-05-04T09:09:33.221Z,101277.02
2018-05-04T09:10:35.794Z,101277.27
2018-05-04T09:11:38.325Z,101276.45
2018-05-04T09:12:40.838Z,101273.15
2018-05-04T09:13:43.337Z,101270.40
2018-05-04T09:14:45.810Z,101267.50
2018-05-04T09:15:48.343Z,101267.91
2018-05-04T09:16:50.858Z,101266.94
2018-05-04T09:17:53.351Z,101273.00
2018-05-04T09:18:55.851Z,101269.28
2018-05-04T09:19:58.330Z,101267.50
2018-05-04T09:21:00.811Z,101266.53
2018-05-04T09:22:03.315Z,101260.63
2018-05-04T09:23:05.896Z,101265.00
2018-05-04T09:24:08.453Z,101271.88
2018-05-04T09:25:10.963Z,101267.34
2018-05-04T09:26:13.487Z,101264.33
2018-05-04T09:27:15.991Z,101261.58
2018-05-04T09:28:18.499Z,101264.33
2018-05-04T09:29:21.011Z,101265.95
2018-05-04T09:30:23.532Z,101262.39
2018-05-04T09:31:26.037Z,101256.89
2018-05-04T09:32:28.528Z,101261.42
2018-05-04T09:33:31.087Z,101269.67
2018-05-04T09:34:33.595Z,101266.77
2018-05-04T09:35:36.081Z,101267.73
2018-05-04T09:36:38.593Z,101270.48
2018-05-04T09:37:41.082Z,101272.27
2018-05-04T09:38:43.577Z,101272.27
2018-05-04T09:39:46.061Z,101264.42
2018-05-04T09:40:48.556Z,101261.67
2018-05-04T09:41:51.157Z,101265.64
2018-05-04T09:42:53.631Z,101259.18
2018-05-04T09:43:56.135Z,101264.68
2018-05-04T09:44:58.621Z,101263.71
2018-05-04T09:46:01.128Z,101263.16
2018-05-04T09:47:03.617Z,101264.37
2018-05-04T09:48:06.086Z,101266.56
2018-05-04T09:49:08.581Z,101262.84
2018-05-04T09:50:11.099Z,101263.66
2018-05-04T09:51:13.592Z,101259.12
2018-05-04T09:52:16.110Z,101265.03
2018-05-04T09:53:18.602Z,101262.69
2018-05-04T09:54:21.089Z,101255.27
2018-05-04T09:55:23.557Z,101263.91
2018-05-04T09:56:26.064Z,101260.05
2018-05-04T09:57:28.570Z,101263.76
2018-05-04T09:58:31.095Z,101259.23
2018-05-04T09:59:33.661Z,101255.11
2018-05-04T10:00:36.205Z,101259.23
2018-05-04T10:01:38.679Z,101260.45
2018-05-04T10:02:41.201Z,101255.36
2018-05-04T10:03:43.689Z,101255.92
2018-05-04T10:04:46.234Z,101259.08
2018-05-04T10:05:48.742Z,101250.42
2018-05-04T10:06:51.271Z,101245.18
2018-05-04T10:07:53.829Z,101240.91
2018-05-04T10:08:56.328Z,101239.68
2018-05-04T10:09:58.816Z,101245.02
2018-05-04T10:11:01.321Z,101242.28
2018-05-04T10:12:03.829Z,101238.56
2018-05-04T10:13:06.337Z,101242.69
2018-05-04T10:14:08.820Z,101240.34
2018-05-04T10:15:11.355Z,101236.63
2018-05-04T10:16:13.860Z,101239.38
2018-05-04T10:17:16.330Z,101238.41
2018-05-04T10:18:18.836Z,101234.84
2018-05-04T10:19:21.318Z,101237.84
2018-05-04T10:20:23.815Z,101234.69
2018-05-04T10:21:26.287Z,101232.75
2018-05-04T10:22:28.789Z,101239.63
2018-05-04T10:23:31.297Z,101243.19
2018-05-04T10:24:33.789Z,101245.94
2018-05-04T10:25:36.286Z,101246.50
2018-05-04T10:26:38.787Z,101238.09
2018-05-04T10:27:41.277Z,101233.98
2018-05-04T10:28:43.784Z,101233.41
2018-05-04T10:29:46.296Z,101232.60
2018-05-04T10:30:48.800Z,101231.63
2018-05-04T10:31:51.289Z,101234.79
2018-05-04T10:32:53.791Z,101234.23
2018-05-04T10:33:56.297Z,101233.27
2018-05-04T10:34:58.801Z,101225.42
2018-05-04T10:36:01.311Z,101232.73
2018-05-04T10:37:03.782Z,101231.36
2018-05-04T10:38:06.484Z,101231.36
2018-05-04T10:39:09.638Z,101222.55
2018-05-04T10:40:12.182Z,101224.05
2018-05-04T10:41:14.667Z,101221.73
2018-05-04T10:42:17.149Z,101217.61
2018-05-04T10:43:19.639Z,101220.36
2018-05-04T10:44:22.126Z,101214.30
2018-05-04T10:45:24.598Z,101211.55
2018-05-04T10:46:27.112Z,101218.83
2018-05-04T10:47:29.601Z,101217.45
2018-05-04T10:48:32.073Z,101217.86
2018-05-04T10:49:34.581Z,101216.89
2018-05-04T10:50:37.263Z,101222.80
2018-05-04T10:51:39.793Z,101222.64
2018-05-04T10:52:42.299Z,101224.98
2018-05-04T10:53:44.797Z,101223.20
2018-05-04T10:54:47.290Z,101223.77
2018-05-04T10:55:49.775Z,101217.70
2018-05-04T10:56:52.274Z,101223.61
2018-05-04T10:57:54.760Z,101221.27
2018-05-04T10:58:57.265Z,101221.27
2018-05-04T10:59:59.785Z,101221.68
2018-05-04T11:01:02.255Z,101224.02
2018-05-04T11:02:04.754Z,101223.87
2018-05-04T11:03:07.241Z,101221.68
2018-05-04T11:04:09.729Z,101222.90
2018-05-04T11:05:12.226Z,101219.74
2018-05-04T11:06:14.725Z,101220.16
2018-05-04T11:07:17.228Z,101214.66
2018-05-04T11:08:19.812Z,101220.97
2018-05-04T11:09:22.320Z,101214.09
2018-05-04T11:10:24.819Z,101212.72
2018-05-04T11:11:27.290Z,101211.75
2018-05-04T11:12:29.776Z,101212.56
2018-05-04T11:13:32.246Z,101212.97
2018-05-04T11:14:34.710Z,101211.34
2018-05-04T11:15:37.241Z,101207.22
2018-05-04T11:16:39.784Z,101218.88
2018-05-04T11:17:42.261Z,101210.63
2018-05-04T11:18:44.775Z,101216.53
2018-05-04T11:19:47.245Z,101209.25
2018-05-04T11:20:49.774Z,101218.16
2018-05-04T11:21:52.251Z,101216.94
2018-05-04T11:22:54.755Z,101208.69
2018-05-04T11:23:57.356Z,101210.47
2018-05-04T11:24:59.794Z,101209.91
2018-05-04T11:26:02.329Z,101207.31
2018-05-04T11:27:04.892Z,101208.12
2018-05-04T11:28:07.363Z,101208.12
2018-05-04T11:29:10.199Z,101211.69
2018-05-04T11:30:12.704Z,101210.73
2018-05-04T11:31:15.231Z,101207.57
2018-05-04T11:32:17.728Z,101205.78
2018-05-04T11:33:20.212Z,101203.85
2018-05-04T11:34:22.723Z,101202.07
2018-05-04T11:35:25.208Z,101209.76
2018-05-04T11:36:27.748Z,101201.66
2018-05-04T11:37:30.239Z,101205.23
2018-05-04T11:38:32.745Z,101205.23
2018-05-04T11:39:35.239Z,101205.23
2018-05-04T11:40:37.712Z,101201.25
2018-05-04T11:41:40.236Z,101209.76
2018-05-04T11:42:42.712Z,101209.50
2018-05-04T11:43:45.205Z,101210.47
2018-05-04T11:44:47.732Z,101205.38
2018-05-04T11:45:50.207Z,101207.72
2018-05-04T11:46:52.716Z,101205.38
2018-05-04T11:47:55.288Z,101207.31
2018-05-04T11:48:57.797Z,101201.25
2018-05-04T11:50:00.267Z,101205.38
2018-05-04T11:51:02.753Z,101208.53
2018-05-04T11:52:05.283Z,101208.94
2018-05-04T11:53:07.808Z,101205.38
2018-05-04T11:54:10.370Z,101209.76